Terminal Aerodrome Forecast
Issued by NWS Chicago, IL

Home | Current Version | Previous Version | Text Only | Print | Product List | Glossary On
Versions: 1 2 3 4 5 6 7 8 9 10 11 12 13 14 15 16 17 18 19 20 21 22 23 24 25 26 27 28 29 30
000
FTUS43 KLOT 240300 AAA
TAFRFD
TAF AMD
KRFD 240300Z 2403/2424 10011KT 6SM -RA SCT040 OVC070
     FM240430 11011KT P6SM VCSH FEW040 OVC070
     FM240700 11010KT P6SM BKN070
     FM241300 12015G21KT P6SM BKN200
     FM241500 15024G32KT P6SM BKN050
     FM242000 18016G24KT 5SM -SHRA SCT025 OVC040=

USA.gov is the U.S. government's official web portal to all federal, state and local government web resources and services.